Time;durP1;ratioP1;P1;durP2;ratioP2;P2;SDS_P1;SDS_P2;PMS_P1;PMS_P2;Temp;Humidity;BMP_temperature;BMP_pressure;BME280_temperature;BME280_humidity;BME280_pressure;Samples;Min_cycle;Max_cycle;Signal;HPM_P1;HPM_P2
2022/12/02 00:02:31;;;;;;;10.65;3.13;;;;;;;;;;4894230;29;20404;-76
2022/12/02 00:05:27;;;;;;;11.05;2.70;;;;;;;;;;4894337;29;20059;-75
2022/12/02 00:08:18;;;;;;;9.57;2.72;;;;;;;;;;4894537;29;20048;-74
2022/12/02 00:10:54;;;;;;;6.15;3.03;;;;;;;;;;4899905;29;20063;-74
2022/12/02 00:13:28;;;;;;;5.75;2.40;;;;;;;;;;4901713;29;20048;-74
2022/12/02 00:16:00;;;;;;;6.28;2.60;;;;;;;;;;4893909;29;20051;-78
2022/12/02 00:18:31;;;;;;;6.55;2.47;;;;;;;;;;4892644;29;20547;-75
2022/12/02 00:21:00;;;;;;;5.32;3.13;;;;;;;;;;4893739;29;20056;-74
2022/12/02 00:23:30;;;;;;;3.42;2.80;;;;;;;;;;4893872;29;20044;-75
2022/12/02 00:26:00;;;;;;;8.68;2.42;;;;;;;;;;4893909;29;20063;-75
2022/12/02 00:28:29;;;;;;;5.28;2.50;;;;;;;;;;4893437;29;20047;-75
2022/12/02 00:30:59;;;;;;;12.15;2.92;;;;;;;;;;4893386;29;20068;-76
2022/12/02 00:33:29;;;;;;;4.57;2.58;;;;;;;;;;4893081;29;20091;-75
2022/12/02 00:35:58;;;;;;;7.65;2.88;;;;;;;;;;4892085;29;20500;-75
2022/12/02 00:38:28;;;;;;;3.65;2.40;;;;;;;;;;4893196;29;20060;-75
2022/12/02 00:41:00;;;;;;;11.43;2.78;;;;;;;;;;4892195;29;20063;-75
2022/12/02 00:46:33;;;;;;;10.75;2.70;;;;;;;;;;4892254;29;20083;-75
2022/12/02 00:49:13;;;;;;;9.07;2.75;;;;;;;;;;4893412;29;20064;-75
2022/12/02 00:51:44;;;;;;;13.02;3.20;;;;;;;;;;4893449;29;20051;-74
2022/12/02 00:54:15;;;;;;;4.80;2.13;;;;;;;;;;4893326;29;20056;-74
2022/12/02 00:56:45;;;;;;;7.82;3.00;;;;;;;;;;4891289;29;20059;-75
2022/12/02 00:59:15;;;;;;;6.25;2.90;;;;;;;;;;4891823;29;20052;-75
2022/12/02 01:01:45;;;;;;;4.68;2.40;;;;;;;;;;4893269;29;20037;-76
2022/12/02 01:04:15;;;;;;;5.03;2.70;;;;;;;;;;4890828;29;20420;-76
2022/12/02 01:06:46;;;;;;;8.32;2.80;;;;;;;;;;4892128;29;21170;-76
2022/12/02 01:09:17;;;;;;;3.10;2.20;;;;;;;;;;4890239;29;20611;-76
2022/12/02 01:11:47;;;;;;;7.90;2.50;;;;;;;;;;4892595;29;20052;-76
2022/12/02 01:14:16;;;;;;;6.18;2.45;;;;;;;;;;4892633;29;20515;-75
2022/12/02 01:16:46;;;;;;;7.40;2.60;;;;;;;;;;4876046;29;20069;-75
2022/12/02 01:19:16;;;;;;;9.75;2.70;;;;;;;;;;4890050;29;20448;-75
2022/12/02 01:21:46;;;;;;;9.60;4.13;;;;;;;;;;4890840;29;20052;-77
2022/12/02 01:24:16;;;;;;;5.47;2.70;;;;;;;;;;4891346;29;20082;-74
2022/12/02 01:26:45;;;;;;;6.38;2.60;;;;;;;;;;4892704;29;20056;-75
2022/12/02 01:29:15;;;;;;;12.30;2.70;;;;;;;;;;4891133;29;20061;-74
2022/12/02 01:31:45;;;;;;;10.43;2.88;;;;;;;;;;4892647;29;20420;-74
2022/12/02 01:34:15;;;;;;;7.28;2.45;;;;;;;;;;4892893;29;20049;-75
2022/12/02 01:36:44;;;;;;;6.65;2.50;;;;;;;;;;4891270;29;20052;-74
2022/12/02 01:39:14;;;;;;;6.22;2.45;;;;;;;;;;4892478;29;20075;-75
2022/12/02 01:41:44;;;;;;;10.00;3.08;;;;;;;;;;4891085;29;20056;-74
2022/12/02 01:44:14;;;;;;;12.63;2.67;;;;;;;;;;4892337;29;20044;-77
2022/12/02 01:46:44;;;;;;;6.20;2.55;;;;;;;;;;4892090;29;20424;-74
2022/12/02 01:49:14;;;;;;;5.10;2.55;;;;;;;;;;4892123;29;20052;-74
2022/12/02 01:51:44;;;;;;;8.13;2.58;;;;;;;;;;4892663;29;20049;-74
2022/12/02 01:54:14;;;;;;;10.38;2.50;;;;;;;;;;4890535;29;20056;-74
2022/12/02 01:56:44;;;;;;;5.72;2.35;;;;;;;;;;4892162;29;20060;-74
2022/12/02 01:59:16;;;;;;;4.20;2.10;;;;;;;;;;4890773;29;20072;-75
2022/12/02 02:01:46;;;;;;;3.15;1.80;;;;;;;;;;4890842;29;20056;-74
2022/12/02 02:04:17;;;;;;;4.88;1.98;;;;;;;;;;4890599;29;20069;-74
2022/12/02 02:06:48;;;;;;;4.60;1.90;;;;;;;;;;4889959;29;20449;-74
2022/12/02 02:09:18;;;;;;;3.88;1.83;;;;;;;;;;4890658;29;20056;-75
2022/12/02 02:11:48;;;;;;;3.42;2.20;;;;;;;;;;4891684;29;20393;-74
2022/12/02 02:14:18;;;;;;;5.80;2.30;;;;;;;;;;4890185;29;20533;-74
2022/12/02 02:16:47;;;;;;;3.72;1.88;;;;;;;;;;4891782;29;20055;-75
2022/12/02 02:19:17;;;;;;;3.38;1.83;;;;;;;;;;4891756;29;20052;-74
2022/12/02 02:21:50;;;;;;;5.75;2.00;;;;;;;;;;4890238;29;20092;-74
2022/12/02 02:24:21;;;;;;;2.90;1.88;;;;;;;;;;4890466;29;20056;-74
2022/12/02 02:26:51;;;;;;;3.00;2.03;;;;;;;;;;4890704;29;20524;-75
2022/12/02 02:29:21;;;;;;;4.50;2.10;;;;;;;;;;4890314;29;20401;-74
2022/12/02 02:31:51;;;;;;;6.10;2.40;;;;;;;;;;4891611;29;20063;-74
2022/12/02 02:34:21;;;;;;;3.60;1.92;;;;;;;;;;4875568;29;20508;-75
2022/12/02 02:36:51;;;;;;;5.35;2.03;;;;;;;;;;4890691;29;20496;-75
2022/12/02 02:39:23;;;;;;;2.65;1.80;;;;;;;;;;4895055;29;20067;-74
2022/12/02 02:41:55;;;;;;;7.22;2.45;;;;;;;;;;4901256;29;20057;-74
2022/12/02 02:44:27;;;;;;;2.78;2.33;;;;;;;;;;4892279;29;20047;-74
2022/12/02 02:46:57;;;;;;;3.58;2.10;;;;;;;;;;4890218;29;20060;-76
2022/12/02 02:49:28;;;;;;;9.13;2.20;;;;;;;;;;4889439;29;20107;-75
2022/12/02 02:51:58;;;;;;;3.17;2.35;;;;;;;;;;4891715;29;20060;-74
2022/12/02 02:54:29;;;;;;;4.32;2.17;;;;;;;;;;4889989;29;20061;-74
2022/12/02 02:56:58;;;;;;;5.65;2.03;;;;;;;;;;4889935;29;20520;-75
2022/12/02 02:59:28;;;;;;;6.63;2.30;;;;;;;;;;4892777;29;20432;-75
2022/12/02 03:01:59;;;;;;;3.15;2.40;;;;;;;;;;4894382;29;20562;-74
2022/12/02 03:04:30;;;;;;;3.72;2.50;;;;;;;;;;4894140;29;20079;-74
2022/12/02 03:07:00;;;;;;;3.10;2.33;;;;;;;;;;4894134;29;20057;-75
2022/12/02 03:09:30;;;;;;;2.90;2.30;;;;;;;;;;4895151;29;20072;-75
2022/12/02 03:12:01;;;;;;;2.40;2.10;;;;;;;;;;4894928;29;20527;-75
2022/12/02 03:14:30;;;;;;;3.22;2.10;;;;;;;;;;4894763;29;20051;-75
2022/12/02 03:17:01;;;;;;;2.63;2.38;;;;;;;;;;4894951;29;20436;-74
2022/12/02 03:19:33;;;;;;;5.63;2.47;;;;;;;;;;4895309;29;20068;-75
2022/12/02 03:22:03;;;;;;;5.72;2.20;;;;;;;;;;4894920;29;20056;-74
2022/12/02 03:24:34;;;;;;;4.13;2.13;;;;;;;;;;4894884;29;20592;-75
2022/12/02 03:27:06;;;;;;;2.85;1.95;;;;;;;;;;4894436;29;20045;-74
2022/12/02 03:29:37;;;;;;;7.75;2.67;;;;;;;;;;4894614;29;20068;-74
2022/12/02 03:32:09;;;;;;;14.18;3.25;;;;;;;;;;4894809;29;20521;-74
2022/12/02 03:34:41;;;;;;;10.18;3.10;;;;;;;;;;4895257;29;20555;-74
2022/12/02 03:37:11;;;;;;;5.80;2.90;;;;;;;;;;4893194;29;20045;-75
2022/12/02 03:39:41;;;;;;;6.60;3.10;;;;;;;;;;4894023;29;20061;-75
2022/12/02 03:42:11;;;;;;;4.75;2.42;;;;;;;;;;4895062;29;20048;-74
2022/12/02 03:44:41;;;;;;;4.93;2.22;;;;;;;;;;4893589;29;20522;-74
2022/12/02 03:47:11;;;;;;;2.88;2.28;;;;;;;;;;4894859;29;20408;-74
2022/12/02 03:49:43;;;;;;;3.47;2.70;;;;;;;;;;4894508;29;20049;-74
2022/12/02 03:52:13;;;;;;;9.88;2.47;;;;;;;;;;4894356;29;20545;-74
2022/12/02 03:54:43;;;;;;;3.92;2.28;;;;;;;;;;4894847;29;20056;-74
2022/12/02 03:57:17;;;;;;;2.90;2.50;;;;;;;;;;4894578;29;20567;-75
2022/12/02 03:59:47;;;;;;;4.28;2.58;;;;;;;;;;4894383;29;20061;-74
2022/12/02 04:02:17;;;;;;;3.10;2.45;;;;;;;;;;4893988;29;20060;-74
2022/12/02 04:04:47;;;;;;;6.68;2.88;;;;;;;;;;4894021;29;20048;-74
2022/12/02 04:07:17;;;;;;;5.05;2.80;;;;;;;;;;4894069;29;20488;-74
2022/12/02 04:09:47;;;;;;;3.67;2.40;;;;;;;;;;4893937;29;20044;-74
2022/12/02 04:12:17;;;;;;;5.25;2.33;;;;;;;;;;4894190;29;20056;-74
2022/12/02 04:14:47;;;;;;;3.88;2.58;;;;;;;;;;4892533;29;20052;-74
2022/12/02 04:17:17;;;;;;;7.78;3.00;;;;;;;;;;4893798;29;20594;-74
2022/12/02 04:19:47;;;;;;;3.97;2.42;;;;;;;;;;4893898;29;20109;-74
2022/12/02 04:22:17;;;;;;;3.78;2.85;;;;;;;;;;4892255;29;20064;-75
2022/12/02 04:24:47;;;;;;;5.07;2.78;;;;;;;;;;4893891;29;20546;-74
2022/12/02 04:27:17;;;;;;;6.43;2.70;;;;;;;;;;4893483;29;20512;-74
2022/12/02 04:29:47;;;;;;;7.78;2.70;;;;;;;;;;4893940;29;20057;-75
2022/12/02 04:32:17;;;;;;;4.00;2.78;;;;;;;;;;4893577;29;20044;-74
2022/12/02 04:34:47;;;;;;;5.13;2.45;;;;;;;;;;4894181;29;20059;-74
2022/12/02 04:37:18;;;;;;;7.10;2.67;;;;;;;;;;4893678;29;20056;-75
2022/12/02 04:39:47;;;;;;;4.22;2.35;;;;;;;;;;4892960;29;20052;-74
2022/12/02 04:42:17;;;;;;;5.40;2.75;;;;;;;;;;4893524;29;20079;-74
2022/12/02 04:44:47;;;;;;;10.25;2.88;;;;;;;;;;4893735;29;20519;-74
2022/12/02 04:47:17;;;;;;;5.90;2.75;;;;;;;;;;4893400;29;20053;-74
2022/12/02 04:49:47;;;;;;;3.92;2.55;;;;;;;;;;4893859;29;20067;-74
2022/12/02 04:52:17;;;;;;;7.20;2.75;;;;;;;;;;4893770;29;20421;-74
2022/12/02 04:54:46;;;;;;;4.15;2.78;;;;;;;;;;4893197;29;20048;-74
2022/12/02 04:57:17;;;;;;;5.18;2.65;;;;;;;;;;4892798;29;20059;-74
2022/12/02 04:59:46;;;;;;;5.32;3.00;;;;;;;;;;4893212;29;20428;-74
2022/12/02 05:02:16;;;;;;;5.57;3.00;;;;;;;;;;4893512;29;20155;-74
2022/12/02 05:04:46;;;;;;;5.05;2.60;;;;;;;;;;4892217;29;20052;-74
2022/12/02 05:07:16;;;;;;;6.13;3.05;;;;;;;;;;4892970;29;20059;-74
2022/12/02 05:09:46;;;;;;;5.68;3.15;;;;;;;;;;4893350;29;20460;-74
2022/12/02 05:12:16;;;;;;;5.57;2.97;;;;;;;;;;4892874;29;20067;-74
2022/12/02 05:14:46;;;;;;;8.90;2.72;;;;;;;;;;4902189;29;20059;-73
2022/12/02 05:17:16;;;;;;;7.38;3.20;;;;;;;;;;4896247;29;20049;-74
2022/12/02 05:19:46;;;;;;;5.60;2.95;;;;;;;;;;4892493;29;20056;-75
2022/12/02 05:22:16;;;;;;;5.40;2.83;;;;;;;;;;4892057;29;20052;-74
2022/12/02 05:24:47;;;;;;;4.20;2.72;;;;;;;;;;4892764;29;20610;-74
2022/12/02 05:27:17;;;;;;;6.07;2.92;;;;;;;;;;4891830;29;20632;-74
2022/12/02 05:29:47;;;;;;;11.23;3.28;;;;;;;;;;4892606;29;20072;-75
2022/12/02 05:32:17;;;;;;;4.60;2.70;;;;;;;;;;4892123;29;20060;-74
2022/12/02 05:34:46;;;;;;;6.13;3.03;;;;;;;;;;4892529;29;20448;-74
2022/12/02 05:37:17;;;;;;;6.18;3.42;;;;;;;;;;4892000;29;20067;-73
2022/12/02 05:39:47;;;;;;;4.50;3.40;;;;;;;;;;4892868;29;20534;-74
2022/12/02 05:42:17;;;;;;;6.55;2.95;;;;;;;;;;4892861;29;20048;-74
2022/12/02 05:44:46;;;;;;;6.38;3.15;;;;;;;;;;4891976;29;20452;-74
2022/12/02 05:47:18;;;;;;;8.55;3.20;;;;;;;;;;4892095;29;20060;-74
2022/12/02 05:49:48;;;;;;;7.32;3.45;;;;;;;;;;4892171;29;20432;-73
2022/12/02 05:52:24;;;;;;;8.38;3.42;;;;;;;;;;4890736;29;20052;-74
2022/12/02 05:54:59;;;;;;;6.35;3.00;;;;;;;;;;4892161;29;20051;-74
2022/12/02 05:57:30;;;;;;;6.68;3.25;;;;;;;;;;4892971;29;20044;-73
2022/12/02 06:00:22;;;;;;;8.63;3.70;;;;;;;;;;4892143;29;20535;-74
2022/12/02 06:02:55;;;;;;;5.00;3.25;;;;;;;;;;4891915;29;20052;-75
2022/12/02 06:05:30;;;;;;;6.43;3.03;;;;;;;;;;4892049;29;20064;-74
2022/12/02 06:08:26;;;;;;;11.75;3.10;;;;;;;;;;4891802;29;20040;-75
2022/12/02 06:11:02;;;;;;;7.18;3.30;;;;;;;;;;4890526;29;20053;-74
2022/12/02 06:13:36;;;;;;;6.10;3.42;;;;;;;;;;4891995;29;20044;-74
2022/12/02 06:16:11;;;;;;;4.70;3.28;;;;;;;;;;4892091;29;20068;-74
2022/12/02 06:18:42;;;;;;;5.05;2.90;;;;;;;;;;4890563;29;20068;-75
2022/12/02 06:21:17;;;;;;;5.25;3.08;;;;;;;;;;4891548;29;20180;-75
2022/12/02 06:23:51;;;;;;;4.43;3.10;;;;;;;;;;4892297;29;20068;-74
2022/12/02 06:26:21;;;;;;;4.38;2.78;;;;;;;;;;4890789;29;20056;-74
2022/12/02 06:28:58;;;;;;;8.30;3.30;;;;;;;;;;4891584;29;20052;-75
2022/12/02 06:31:36;;;;;;;4.63;2.90;;;;;;;;;;4891742;29;20412;-74
2022/12/02 06:34:32;;;;;;;6.75;3.13;;;;;;;;;;4891914;29;20048;-74
2022/12/02 06:37:14;;;;;;;6.57;3.08;;;;;;;;;;4888941;29;20501;-75
2022/12/02 06:39:47;;;;;;;5.82;3.40;;;;;;;;;;4891889;29;20056;-74
2022/12/02 06:42:38;;;;;;;6.65;2.83;;;;;;;;;;4891660;29;20057;-74
2022/12/02 06:45:14;;;;;;;4.70;2.70;;;;;;;;;;4891209;29;20504;-74
2022/12/02 06:48:01;;;;;;;5.63;2.95;;;;;;;;;;4891289;29;20048;-74
2022/12/02 06:50:49;;;;;;;4.88;3.00;;;;;;;;;;4891430;29;20048;-74
2022/12/02 06:53:32;;;;;;;11.57;3.10;;;;;;;;;;4891162;29;20543;-74
2022/12/02 06:56:19;;;;;;;3.95;3.00;;;;;;;;;;4891507;29;20053;-74
2022/12/02 06:58:53;;;;;;;4.38;2.97;;;;;;;;;;4891527;29;20048;-74
2022/12/02 07:01:33;;;;;;;3.38;2.53;;;;;;;;;;4889698;29;20052;-74
2022/12/02 07:04:03;;;;;;;7.05;3.42;;;;;;;;;;4891485;29;20053;-74
2022/12/02 07:06:36;;;;;;;6.07;2.53;;;;;;;;;;4891496;29;20128;-74
2022/12/02 07:09:18;;;;;;;4.53;3.10;;;;;;;;;;4891219;29;20409;-74
2022/12/02 07:11:54;;;;;;;;;;;;;;;;;;4891999;29;20052;-74
2022/12/02 07:14:55;;;;;;;3.53;2.42;;;;;;;;;;4891228;29;20494;-74
2022/12/02 07:17:35;;;;;;;4.00;2.55;;;;;;;;;;4891496;29;20049;-75
2022/12/02 07:20:06;;;;;;;3.03;2.60;;;;;;;;;;4890497;29;20057;-74
2022/12/02 07:22:47;;;;;;;3.70;2.50;;;;;;;;;;4890716;29;20053;-74
2022/12/02 07:25:30;;;;;;;5.13;3.30;;;;;;;;;;4891237;29;20057;-74
2022/12/02 07:28:01;;;;;;;4.65;3.10;;;;;;;;;;4890736;29;20543;-74
2022/12/02 07:30:36;;;;;;;7.60;2.88;;;;;;;;;;4890137;29;20068;-74
2022/12/02 07:33:06;;;;;;;3.20;2.55;;;;;;;;;;4891778;29;20048;-75
2022/12/02 07:35:36;;;;;;;4.93;2.72;;;;;;;;;;4891784;29;20052;-74
2022/12/02 07:38:05;;;;;;;4.43;2.72;;;;;;;;;;4891294;29;20060;-74
2022/12/02 07:40:35;;;;;;;5.00;2.75;;;;;;;;;;4890800;29;20512;-74
2022/12/02 07:43:05;;;;;;;3.35;2.70;;;;;;;;;;4891063;29;20504;-74
2022/12/02 07:45:35;;;;;;;5.88;3.05;;;;;;;;;;4891946;29;20424;-74
2022/12/02 07:48:05;;;;;;;6.07;3.15;;;;;;;;;;4893188;29;20049;-74
2022/12/02 07:50:35;;;;;;;4.13;2.72;;;;;;;;;;4895284;29;20053;-74
2022/12/02 07:53:05;;;;;;;11.00;2.75;;;;;;;;;;4904249;29;20047;-75
2022/12/02 07:55:35;;;;;;;6.38;2.65;;;;;;;;;;4901981;29;20590;-74
2022/12/02 07:58:06;;;;;;;3.95;2.92;;;;;;;;;;4894745;29;20048;-74
2022/12/02 08:00:35;;;;;;;3.72;3.20;;;;;;;;;;4894105;29;20057;-74
2022/12/02 08:03:05;;;;;;;6.32;3.10;;;;;;;;;;4894831;29;20049;-75
2022/12/02 08:05:35;;;;;;;5.47;2.90;;;;;;;;;;4894146;29;20452;-74
2022/12/02 08:08:05;;;;;;;4.93;2.85;;;;;;;;;;4894201;29;20048;-74
2022/12/02 08:10:35;;;;;;;4.32;2.78;;;;;;;;;;4892833;29;20052;-73
2022/12/02 08:13:05;;;;;;;3.30;2.47;;;;;;;;;;4894453;29;20496;-75
2022/12/02 08:15:34;;;;;;;4.88;2.85;;;;;;;;;;4893719;29;20056;-74
2022/12/02 08:18:04;;;;;;;5.25;2.72;;;;;;;;;;4894256;29;20520;-75
2022/12/02 08:20:34;;;;;;;3.80;2.75;;;;;;;;;;4894427;29;20056;-75
2022/12/02 08:23:04;;;;;;;5.55;2.60;;;;;;;;;;4893701;29;20048;-74
2022/12/02 08:25:34;;;;;;;7.72;2.40;;;;;;;;;;4892581;29;20504;-74
2022/12/02 08:28:03;;;;;;;3.45;2.45;;;;;;;;;;4894510;29;20080;-75
2022/12/02 08:30:33;;;;;;;2.20;1.95;;;;;;;;;;4893519;29;21077;-74
2022/12/02 08:33:03;;;;;;;3.85;2.42;;;;;;;;;;4893495;29;20069;-75
2022/12/02 08:35:33;;;;;;;3.33;2.60;;;;;;;;;;4892889;29;20086;-75
2022/12/02 08:38:02;;;;;;;5.38;2.72;;;;;;;;;;4893843;29;20060;-74
2022/12/02 08:40:33;;;;;;;10.52;2.22;;;;;;;;;;4893771;29;20504;-75
2022/12/02 08:43:03;;;;;;;8.05;2.20;;;;;;;;;;4893813;29;20440;-76
2022/12/02 08:45:34;;;;;;;3.63;1.80;;;;;;;;;;4893750;29;20052;-74
2022/12/02 08:48:05;;;;;;;3.20;1.95;;;;;;;;;;4893253;29;20064;-75
2022/12/02 08:50:35;;;;;;;6.00;1.73;;;;;;;;;;4893845;29;20049;-75
2022/12/02 08:53:05;;;;;;;2.92;1.73;;;;;;;;;;4893539;29;20052;-74
2022/12/02 08:55:37;;;;;;;1.98;1.52;;;;;;;;;;4893557;29;20048;-75
2022/12/02 08:58:07;;;;;;;7.22;1.70;;;;;;;;;;4892561;29;20056;-75
2022/12/02 09:00:36;;;;;;;2.05;1.40;;;;;;;;;;4892967;29;20048;-75
2022/12/02 09:03:07;;;;;;;3.13;1.58;;;;;;;;;;4893417;29;20425;-74
2022/12/02 09:05:40;;;;;;;2.60;1.60;;;;;;;;;;4891969;29;20056;-74
2022/12/02 09:08:10;;;;;;;1.85;1.50;;;;;;;;;;4893237;29;20059;-74
2022/12/02 09:10:40;;;;;;;4.90;1.90;;;;;;;;;;4891317;29;20064;-74
2022/12/02 09:13:10;;;;;;;2.10;1.42;;;;;;;;;;4893353;29;20049;-74
2022/12/02 09:15:39;;;;;;;9.32;1.58;;;;;;;;;;4893107;29;20052;-74
2022/12/02 09:18:09;;;;;;;3.28;1.40;;;;;;;;;;4893145;29;20064;-75
2022/12/02 09:20:42;;;;;;;2.28;1.52;;;;;;;;;;4892641;29;20055;-74
2022/12/02 09:23:12;;;;;;;7.13;1.48;;;;;;;;;;4892855;29;20044;-74
2022/12/02 09:25:43;;;;;;;5.65;1.50;;;;;;;;;;4892531;29;20056;-74
2022/12/02 09:28:13;;;;;;;3.42;1.42;;;;;;;;;;4892729;29;20052;-74
2022/12/02 09:30:43;;;;;;;4.28;1.50;;;;;;;;;;4892507;29;20064;-75
2022/12/02 09:33:13;;;;;;;19.63;2.38;;;;;;;;;;4892691;29;20607;-74
2022/12/02 09:35:46;;;;;;;9.20;1.77;;;;;;;;;;4892414;29;20057;-75
2022/12/02 09:38:16;;;;;;;13.88;2.10;;;;;;;;;;4893275;29;20075;-75
2022/12/02 09:40:48;;;;;;;9.73;2.33;;;;;;;;;;4891393;29;20075;-75
2022/12/02 09:43:18;;;;;;;10.52;1.90;;;;;;;;;;4892942;29;20055;-73
2022/12/02 09:45:48;;;;;;;22.00;2.53;;;;;;;;;;4892306;29;20048;-74
2022/12/02 09:48:18;;;;;;;13.10;2.20;;;;;;;;;;4892317;29;20060;-74
2022/12/02 09:50:48;;;;;;;12.02;1.90;;;;;;;;;;4892769;29;20052;-74
2022/12/02 09:53:19;;;;;;;11.50;2.50;;;;;;;;;;4892750;29;20048;-74
2022/12/02 09:55:49;;;;;;;12.43;2.60;;;;;;;;;;4892545;29;20049;-75
2022/12/02 09:58:23;;;;;;;11.40;2.17;;;;;;;;;;4891764;29;20523;-76
2022/12/02 10:00:53;;;;;;;15.80;2.33;;;;;;;;;;4892336;29;20048;-75
2022/12/02 10:03:26;;;;;;;16.27;2.20;;;;;;;;;;4892323;29;20048;-74
2022/12/02 10:06:03;;;;;;;15.63;2.00;;;;;;;;;;4890695;29;20064;-75
2022/12/02 10:08:34;;;;;;;12.85;2.33;;;;;;;;;;4891654;29;20041;-74
2022/12/02 10:11:04;;;;;;;13.55;2.38;;;;;;;;;;4891947;29;20048;-75
2022/12/02 10:13:40;;;;;;;14.20;2.60;;;;;;;;;;4892402;29;20051;-74
2022/12/02 10:16:12;;;;;;;20.40;2.70;;;;;;;;;;4892204;29;20044;-74
2022/12/02 10:18:43;;;;;;;16.05;2.75;;;;;;;;;;4892062;29;20056;-77
2022/12/02 10:21:13;;;;;;;14.55;2.10;;;;;;;;;;4891275;29;20053;-74
2022/12/02 10:24:08;;;;;;;15.77;2.10;;;;;;;;;;4891461;29;20052;-74
2022/12/02 10:26:50;;;;;;;11.90;1.80;;;;;;;;;;4891803;29;20068;-77
2022/12/02 10:29:29;;;;;;;7.97;1.70;;;;;;;;;;4892389;29;20048;-75
2022/12/02 10:32:05;;;;;;;5.10;1.45;;;;;;;;;;4901768;29;20549;-73
2022/12/02 10:34:35;;;;;;;6.25;1.60;;;;;;;;;;4895262;29;20056;-74
2022/12/02 10:37:24;;;;;;;2.70;1.48;;;;;;;;;;4891678;29;20052;-78
2022/12/02 10:40:09;;;;;;;2.78;1.77;;;;;;;;;;4891217;29;20049;-75
2022/12/02 10:42:41;;;;;;;5.65;1.80;;;;;;;;;;4881855;29;20416;-75
2022/12/02 10:45:23;;;;;;;4.93;1.40;;;;;;;;;;4872753;29;20061;-74
2022/12/02 10:48:15;;;;;;;3.50;1.50;;;;;;;;;;4872772;29;20512;-75
2022/12/02 10:50:45;;;;;;;2.75;1.40;;;;;;;;;;4871839;29;20532;-74
2022/12/02 10:53:18;;;;;;;6.88;1.60;;;;;;;;;;4872931;29;20060;-75
2022/12/02 10:55:48;;;;;;;4.40;1.50;;;;;;;;;;4873054;29;20053;-75
2022/12/02 10:58:36;;;;;;;5.90;1.30;;;;;;;;;;4872726;29;20052;-75
2022/12/02 11:01:10;;;;;;;4.53;1.13;;;;;;;;;;4872804;29;20496;-75
2022/12/02 11:03:40;;;;;;;3.28;1.20;;;;;;;;;;4873252;29;20111;-75
2022/12/02 11:06:16;;;;;;;4.32;1.00;;;;;;;;;;4873006;29;20060;-74
2022/12/02 11:08:48;;;;;;;1.35;0.90;;;;;;;;;;4872865;29;20057;-75
2022/12/02 11:11:24;;;;;;;5.68;1.40;;;;;;;;;;4872603;29;20076;-75
2022/12/02 11:13:58;;;;;;;2.42;1.20;;;;;;;;;;4872772;29;20053;-74
2022/12/02 11:16:28;;;;;;;7.28;1.40;;;;;;;;;;4872683;29;20048;-75
2022/12/02 11:19:16;;;;;;;3.22;1.10;;;;;;;;;;4872680;29;20112;-75
2022/12/02 11:21:46;;;;;;;1.77;1.08;;;;;;;;;;4875278;29;20065;-74
2022/12/02 11:24:22;;;;;;;1.80;0.73;;;;;;;;;;4875846;29;20053;-75
2022/12/02 11:27:01;;;;;;;7.22;1.42;;;;;;;;;;4875985;29;20432;-75
2022/12/02 11:29:43;;;;;;;4.93;1.50;;;;;;;;;;4875843;29;20489;-81
2022/12/02 11:32:25;;;;;;;1.83;1.00;;;;;;;;;;4876030;29;20049;-75
2022/12/02 11:35:00;;;;;;;3.67;1.10;;;;;;;;;;4876234;29;20045;-75
2022/12/02 11:37:47;;;;;;;3.33;1.10;;;;;;;;;;4875807;29;20564;-73
2022/12/02 11:40:17;;;;;;;3.47;1.00;;;;;;;;;;4876323;29;20053;-79
2022/12/02 11:42:46;;;;;;;3.38;1.08;;;;;;;;;;4874293;29;20424;-75
2022/12/02 11:45:16;;;;;;;3.35;1.20;;;;;;;;;;4876195;29;20053;-74
2022/12/02 11:48:00;;;;;;;3.08;1.10;;;;;;;;;;4875514;29;20064;-76
2022/12/02 11:50:33;;;;;;;1.13;1.02;;;;;;;;;;4875437;29;20057;-75
2022/12/02 11:53:17;;;;;;;1.95;0.90;;;;;;;;;;4875075;29;20623;-75
2022/12/02 11:55:50;;;;;;;4.18;3.78;;;;;;;;;;4875989;29;20432;-74
2022/12/02 11:58:32;;;;;;;3.58;1.00;;;;;;;;;;4875846;29;20072;-75
2022/12/02 12:01:12;;;;;;;1.05;0.75;;;;;;;;;;4875589;29;20053;-75
2022/12/02 12:03:44;;;;;;;1.77;1.13;;;;;;;;;;4874730;29;20436;-76
2022/12/02 12:06:22;;;;;;;3.88;1.13;;;;;;;;;;4875773;29;20049;-74
2022/12/02 12:08:55;;;;;;;3.28;1.70;;;;;;;;;;4875429;29;20057;-74
2022/12/02 12:11:25;;;;;;;1.20;1.00;;;;;;;;;;4874068;29;20424;-75
2022/12/02 12:14:04;;;;;;;4.72;1.77;;;;;;;;;;4875499;29;20053;-75
2022/12/02 12:16:42;;;;;;;5.43;1.40;;;;;;;;;;4875068;29;20049;-74
2022/12/02 12:19:12;;;;;;;3.53;1.30;;;;;;;;;;4875607;29;20058;-74
2022/12/02 12:21:51;;;;;;;2.47;1.10;;;;;;;;;;4875281;29;20452;-76
2022/12/02 12:24:22;;;;;;;3.80;1.02;;;;;;;;;;4874784;29;20519;-75
2022/12/02 12:26:56;;;;;;;3.00;1.08;;;;;;;;;;4875057;29;20060;-75
2022/12/02 12:29:30;;;;;;;2.03;1.40;;;;;;;;;;4874982;29;20049;-75
2022/12/02 12:32:01;;;;;;;1.55;1.08;;;;;;;;;;4875291;29;20052;-74
2022/12/02 12:34:31;;;;;;;2.22;1.05;;;;;;;;;;4875607;29;20061;-75
2022/12/02 12:37:03;;;;;;;2.17;1.13;;;;;;;;;;4874573;29;20143;-74
2022/12/02 12:39:32;;;;;;;3.00;1.30;;;;;;;;;;4874562;29;20590;-77
2022/12/02 12:42:02;;;;;;;15.68;1.95;;;;;;;;;;4874463;29;20056;-74
2022/12/02 12:44:32;;;;;;;6.18;1.20;;;;;;;;;;4874689;29;20432;-80
2022/12/02 12:47:05;;;;;;;2.75;0.93;;;;;;;;;;4875199;29;20037;-74
2022/12/02 12:49:35;;;;;;;3.22;1.42;;;;;;;;;;4874883;29;20053;-77
2022/12/02 12:52:05;;;;;;;9.30;1.33;;;;;;;;;;4874547;29;20064;-74
2022/12/02 12:54:35;;;;;;;2.83;1.73;;;;;;;;;;4875266;29;20519;-76
2022/12/02 12:57:05;;;;;;;2.70;1.20;;;;;;;;;;4875002;29;20507;-75
2022/12/02 12:59:36;;;;;;;1.33;1.00;;;;;;;;;;4874474;29;20053;-75
2022/12/02 13:02:08;;;;;;;2.58;0.77;;;;;;;;;;4874681;29;20172;-75
2022/12/02 13:04:38;;;;;;;1.40;0.93;;;;;;;;;;4874891;29;20049;-75
2022/12/02 13:07:08;;;;;;;3.00;0.95;;;;;;;;;;4874300;29;20049;-74
2022/12/02 13:09:38;;;;;;;2.67;1.27;;;;;;;;;;4874487;29;20053;-74
2022/12/02 13:12:08;;;;;;;2.13;1.13;;;;;;;;;;4874340;29;20045;-75
2022/12/02 13:14:41;;;;;;;4.57;1.08;;;;;;;;;;4874403;29;20053;-75
2022/12/02 13:17:10;;;;;;;1.70;0.77;;;;;;;;;;4874126;29;20053;-75
2022/12/02 13:19:40;;;;;;;3.53;1.30;;;;;;;;;;4874208;29;20436;-76
2022/12/02 13:22:10;;;;;;;1.90;1.10;;;;;;;;;;4873052;29;20049;-74
2022/12/02 13:24:40;;;;;;;1.27;0.95;;;;;;;;;;4872783;29;20068;-75
2022/12/02 13:27:10;;;;;;;1.83;1.13;;;;;;;;;;4873762;29;20057;-77
2022/12/02 13:29:40;;;;;;;1.73;1.13;;;;;;;;;;4873886;29;20061;-75
2022/12/02 13:32:10;;;;;;;3.53;1.45;;;;;;;;;;4874850;29;20056;-75
2022/12/02 13:34:40;;;;;;;1.25;1.00;;;;;;;;;;4874653;29;20048;-75
2022/12/02 13:37:10;;;;;;;2.63;1.08;;;;;;;;;;4874175;29;20428;-75
2022/12/02 13:39:41;;;;;;;2.33;1.30;;;;;;;;;;4874425;29;20068;-75
2022/12/02 13:42:10;;;;;;;3.20;0.90;;;;;;;;;;4873608;29;20057;-75
2022/12/02 13:44:40;;;;;;;3.45;1.48;;;;;;;;;;4873233;29;20045;-75
2022/12/02 13:47:10;;;;;;;2.10;1.25;;;;;;;;;;4873689;29;20053;-76
2022/12/02 13:49:40;;;;;;;4.00;1.25;;;;;;;;;;4874292;29;20056;-78
2022/12/02 13:52:10;;;;;;;1.55;1.00;;;;;;;;;;4873361;29;20519;-76
2022/12/02 13:54:40;;;;;;;1.33;0.80;;;;;;;;;;4874045;29;20044;-76
2022/12/02 13:57:10;;;;;;;1.67;1.00;;;;;;;;;;4874180;29;20053;-77
2022/12/02 13:59:40;;;;;;;5.53;1.17;;;;;;;;;;4873398;29;20053;-76
2022/12/02 14:02:13;;;;;;;1.52;0.80;;;;;;;;;;4873320;29;20053;-77
2022/12/02 14:04:43;;;;;;;3.35;0.88;;;;;;;;;;4873428;29;20064;-76
2022/12/02 14:07:13;;;;;;;1.83;1.02;;;;;;;;;;4873647;29;20638;-78
2022/12/02 14:09:43;;;;;;;3.28;1.20;;;;;;;;;;4873085;29;20053;-76
2022/12/02 14:12:13;;;;;;;2.20;1.10;;;;;;;;;;4873781;29;20045;-76
2022/12/02 14:14:43;;;;;;;3.10;1.30;;;;;;;;;;4873752;29;20081;-75
2022/12/02 14:17:13;;;;;;;2.08;1.20;;;;;;;;;;4873234;29;20048;-76
2022/12/02 14:19:42;;;;;;;3.40;1.40;;;;;;;;;;4873044;29;20527;-76
2022/12/02 14:22:12;;;;;;;2.35;1.00;;;;;;;;;;4873319;29;20059;-75
2022/12/02 14:24:42;;;;;;;1.40;1.00;;;;;;;;;;4871529;29;20057;-76
2022/12/02 14:27:17;;;;;;;4.60;1.00;;;;;;;;;;4873090;29;20538;-78
2022/12/02 14:29:47;;;;;;;1.40;1.15;;;;;;;;;;4872968;29;20068;-76
2022/12/02 14:32:17;;;;;;;5.57;1.10;;;;;;;;;;4873053;29;20519;-77
2022/12/02 14:34:47;;;;;;;0.95;0.88;;;;;;;;;;4872357;29;20076;-76
2022/12/02 14:37:17;;;;;;;2.10;0.90;;;;;;;;;;4872866;29;20448;-77
2022/12/02 14:39:47;;;;;;;2.15;0.90;;;;;;;;;;4872638;29;20530;-75
2022/12/02 14:42:16;;;;;;;2.70;1.33;;;;;;;;;;4872445;29;20041;-75
2022/12/02 14:44:46;;;;;;;4.30;1.27;;;;;;;;;;4872918;29;20057;-76
2022/12/02 14:47:17;;;;;;;2.10;0.98;;;;;;;;;;4873004;29;20056;-75
2022/12/02 14:49:47;;;;;;;6.90;1.10;;;;;;;;;;4872527;29;20048;-76
2022/12/02 14:52:17;;;;;;;3.30;1.00;;;;;;;;;;4873054;29;20100;-76
2022/12/02 14:54:46;;;;;;;1.33;1.00;;;;;;;;;;4872293;29;20060;-76
2022/12/02 14:57:17;;;;;;;4.38;1.17;;;;;;;;;;4872677;29;20056;-76
2022/12/02 14:59:46;;;;;;;2.88;1.17;;;;;;;;;;4872562;29;20508;-81
2022/12/02 15:02:17;;;;;;;4.82;1.10;;;;;;;;;;4871572;29;20053;-77
2022/12/02 15:04:46;;;;;;;2.83;1.02;;;;;;;;;;4872826;29;20061;-75
2022/12/02 15:07:16;;;;;;;8.68;1.73;;;;;;;;;;4872687;29;20060;-76
2022/12/02 15:09:46;;;;;;;3.25;1.20;;;;;;;;;;4872714;29;20068;-76
2022/12/02 15:12:16;;;;;;;1.15;0.88;;;;;;;;;;4876936;29;20060;-77
2022/12/02 15:14:46;;;;;;;1.65;0.73;;;;;;;;;;4873850;29;20053;-76